Time;durP1;ratioP1;P1;durP2;ratioP2;P2;SDS_P1;SDS_P2;PMS_P1;PMS_P2;Temp;Humidity;BMP_temperature;BMP_pressure;BME280_temperature;BME280_humidity;BME280_pressure;Samples;Min_cycle;Max_cycle;Signal;HPM_P1;HPM_P2
2021/01/24 00:00:58;;;;;;;14.00;12.03;;;;;;;5.51;62.84;99382.97;6096973;29;20228;-64
2021/01/24 00:04:19;;;;;;;15.87;14.20;;;;;;;5.47;63.77;99381.31;6100060;29;21247;-64
2021/01/24 00:07:40;;;;;;;14.00;12.00;;;;;;;5.41;63.36;99383.94;6085448;29;20562;-64
2021/01/24 00:11:01;;;;;;;14.00;12.53;;;;;;;5.55;62.73;99387.22;6099794;29;20335;-63
2021/01/24 00:14:21;;;;;;;17.17;13.87;;;;;;;5.70;62.46;99381.88;6098675;29;20236;-64
2021/01/24 00:17:42;;;;;;;15.70;13.77;;;;;;;5.91;61.60;99378.19;6082008;29;20319;-62
2021/01/24 00:21:02;;;;;;;21.50;13.90;;;;;;;5.97;61.63;99384.16;6105710;28;20236;-63
2021/01/24 00:24:24;;;;;;;18.67;14.97;;;;;;;5.99;61.28;99380.69;6099892;29;20244;-64
2021/01/24 00:27:44;;;;;;;15.50;13.83;;;;;;;6.03;60.99;99378.91;6094351;29;20233;-64
2021/01/24 00:31:05;;;;;;;14.93;13.43;;;;;;;6.06;60.90;99384.88;6087273;29;20542;-64
2021/01/24 00:34:25;;;;;;;15.30;13.73;;;;;;;5.43;62.81;99389.94;6098269;29;20229;-64
2021/01/24 00:37:46;;;;;;;17.13;13.00;;;;;;;5.40;63.40;99392.56;6091754;29;20233;-64
2021/01/24 00:41:07;;;;;;;15.33;13.83;;;;;;;5.29;63.78;99397.81;6098365;28;20228;-64
2021/01/24 00:44:28;;;;;;;21.53;15.17;;;;;;;5.40;63.07;99397.72;6092090;29;20233;-64
2021/01/24 00:47:48;;;;;;;16.87;14.63;;;;;;;5.49;62.79;99395.91;6077660;29;20237;-63
2021/01/24 00:51:08;;;;;;;17.67;13.63;;;;;;;5.61;62.63;99399.22;6104660;28;20229;-64
2021/01/24 00:54:30;;;;;;;15.83;14.27;;;;;;;5.52;62.94;99397.56;6108371;29;20290;-64
2021/01/24 00:57:51;;;;;;;14.50;13.10;;;;;;;5.69;62.57;99395.66;6096981;29;20641;-64
2021/01/24 01:01:12;;;;;;;19.43;14.20;;;;;;;6.01;61.42;99394.44;6096179;29;20232;-65
2021/01/24 01:04:32;;;;;;;16.07;14.43;;;;;;;5.90;61.48;99398.88;6096856;29;20229;-63
2021/01/24 01:07:53;;;;;;;18.27;14.73;;;;;;;5.89;61.29;99390.28;6095562;29;20240;-65
2021/01/24 01:11:13;;;;;;;21.97;15.20;;;;;;;5.34;63.21;99388.31;6100233;28;20235;-64
2021/01/24 01:14:34;;;;;;;15.00;13.50;;;;;;;5.65;62.35;99391.41;6097516;29;20319;-64
2021/01/24 01:17:55;;;;;;;15.90;14.10;;;;;;;5.62;62.12;99390.59;6094465;29;20248;-65
2021/01/24 01:21:15;;;;;;;18.73;14.93;;;;;;;5.41;63.09;99391.66;6097136;29;20228;-64
2021/01/24 01:24:36;;;;;;;16.27;13.87;;;;;;;5.16;63.86;99393.66;6098241;29;20233;-64
2021/01/24 01:27:56;;;;;;;15.00;13.43;;;;;;;5.52;63.02;99380.38;6091096;29;20232;-65
2021/01/24 01:31:17;;;;;;;16.07;13.30;;;;;;;5.44;63.23;99387.34;6096003;29;20228;-64
2021/01/24 01:34:38;;;;;;;18.33;13.90;;;;;;;5.59;62.85;99391.47;6098236;29;20522;-64
2021/01/24 01:37:59;;;;;;;14.50;13.00;;;;;;;5.46;63.07;99379.56;6094875;29;20534;-64
2021/01/24 01:41:19;;;;;;;14.57;13.07;;;;;;;5.63;62.46;99385.41;6096496;29;20331;-63
2021/01/24 01:44:40;;;;;;;16.03;14.40;;;;;;;5.51;62.62;99382.97;6098019;29;20236;-64
2021/01/24 01:48:02;;;;;;;15.67;14.07;;;;;;;5.60;62.52;99385.44;6094200;29;20240;-64
2021/01/24 01:51:22;;;;;;;14.53;13.13;;;;;;;5.64;62.30;99386.25;6096505;29;20323;-64
2021/01/24 01:54:46;;;;;;;18.67;15.40;;;;;;;5.49;62.29;99389.88;6095447;29;20236;-64
2021/01/24 01:58:06;;;;;;;15.83;14.23;;;;;;;5.61;62.14;99379.41;6095424;29;20236;-63
2021/01/24 02:01:33;;;;;;;15.90;14.20;;;;;;;5.48;62.42;99383.84;6097795;28;20586;-62
2021/01/24 02:05:02;;;;;;;15.03;13.47;;;;;;;5.47;62.69;99378.72;6097402;29;20287;-63
2021/01/24 02:08:30;;;;;;;14.53;12.57;;;;;;;5.51;62.49;99377.81;6096221;29;20236;-62
2021/01/24 02:11:59;;;;;;;17.17;14.03;;;;;;;5.48;62.79;99377.84;6096456;29;20243;-64
2021/01/24 02:15:21;;;;;;;16.33;14.53;;;;;;;5.40;62.54;99379.66;6081626;29;20235;-62
2021/01/24 02:18:44;;;;;;;16.23;14.53;;;;;;;5.46;62.44;99380.44;6084569;28;20273;-64
2021/01/24 02:22:08;;;;;;;16.97;12.70;;;;;;;5.31;63.19;99384.06;6094787;29;20331;-63
2021/01/24 02:25:43;;;;;;;18.37;15.43;;;;;;;5.03;63.55;99385.19;6092497;29;20323;-63
2021/01/24 02:29:21;;;;;;;19.67;13.97;;;;;;;5.22;63.36;99389.28;6093981;29;20244;-64
2021/01/24 02:32:44;;;;;;;16.10;14.13;;;;;;;5.10;63.66;99389.44;6097456;29;20235;-64
2021/01/24 02:36:07;;;;;;;18.23;15.07;;;;;;;5.00;64.09;99395.53;6094782;29;20568;-64
2021/01/24 02:39:28;;;;;;;18.53;15.17;;;;;;;4.75;64.55;99395.75;6096997;29;20244;-65
2021/01/24 02:42:51;;;;;;;18.67;15.97;;;;;;;4.68;64.91;99399.25;6095059;29;20224;-62
2021/01/24 02:46:13;;;;;;;19.50;15.33;;;;;;;4.59;64.73;99399.31;6101114;29;20264;-64
2021/01/24 02:49:36;;;;;;;16.33;14.63;;;;;;;4.16;66.28;99410.75;6092584;28;20243;-64
2021/01/24 02:52:58;;;;;;;16.53;14.60;;;;;;;4.52;65.35;99407.09;6094024;29;20232;-65
2021/01/24 02:56:21;;;;;;;17.97;15.53;;;;;;;4.35;66.44;99403.75;6097599;28;20244;-63
2021/01/24 02:59:42;;;;;;;18.13;16.27;;;;;;;4.53;65.74;99400.19;6093193;29;20228;-64
2021/01/24 03:03:02;;;;;;;17.17;15.17;;;;;;;4.41;65.55;99397.72;6093913;29;20629;-64
2021/01/24 03:06:24;;;;;;;16.70;15.00;;;;;;;4.80;64.62;99393.97;6084893;29;20240;-64
2021/01/24 03:09:44;;;;;;;18.33;16.40;;;;;;;4.91;63.60;99399.91;6099682;29;20240;-66
2021/01/24 03:13:12;;;;;;;16.30;14.60;;;;;;;4.97;63.93;99403.31;6095068;29;20235;-64
2021/01/24 03:16:33;;;;;;;16.47;14.87;;;;;;;5.06;63.16;99401.50;6098527;28;20239;-64
2021/01/24 03:19:55;;;;;;;16.83;15.03;;;;;;;5.05;63.39;99393.75;6095446;29;21707;-64
2021/01/24 03:23:17;;;;;;;16.57;14.63;;;;;;;5.08;63.16;99398.91;6088193;29;20229;-64
2021/01/24 03:26:37;;;;;;;18.90;13.97;;;;;;;5.13;62.64;99399.69;6097164;28;20221;-64
2021/01/24 03:29:58;;;;;;;16.33;14.63;;;;;;;4.99;63.03;99392.09;6102300;29;20615;-63
2021/01/24 03:33:19;;;;;;;18.87;15.93;;;;;;;5.01;63.24;99398.09;6095223;29;20608;-64
2021/01/24 03:36:39;;;;;;;19.87;15.30;;;;;;;4.92;63.11;99393.88;6101238;29;20323;-63
2021/01/24 03:40:00;;;;;;;16.57;14.87;;;;;;;4.68;64.31;99399.25;6095829;29;20524;-63
2021/01/24 03:43:21;;;;;;;18.03;16.30;;;;;;;4.00;66.65;99407.41;6088823;29;20232;-63
2021/01/24 03:46:42;;;;;;;23.03;16.83;;;;;;;4.28;65.62;99407.22;6099359;29;20232;-63
2021/01/24 03:50:03;;;;;;;18.80;16.37;;;;;;;4.28;65.20;99412.38;6095379;29;20237;-64
2021/01/24 03:53:23;;;;;;;17.07;15.27;;;;;;;4.52;64.70;99401.09;6094720;29;20228;-64
2021/01/24 03:56:44;;;;;;;17.47;15.23;;;;;;;4.71;64.24;99409.50;6097640;29;20236;-63
2021/01/24 04:00:06;;;;;;;20.30;15.83;;;;;;;4.75;64.05;99408.66;6087396;29;20235;-64
2021/01/24 04:03:33;;;;;;;15.27;13.77;;;;;;;4.53;65.10;99411.34;6097579;29;20231;-64
2021/01/24 04:06:53;;;;;;;18.80;16.43;;;;;;;4.60;64.33;99404.44;6096050;29;20240;-65
2021/01/24 04:10:14;;;;;;;16.43;14.40;;;;;;;4.77;64.23;99414.66;6099116;29;20244;-63
2021/01/24 04:13:35;;;;;;;18.33;16.10;;;;;;;4.77;63.81;99414.66;6094103;29;20233;-64
2021/01/24 04:16:55;;;;;;;16.57;14.67;;;;;;;4.76;63.73;99404.34;6097394;29;20241;-64
2021/01/24 04:20:16;;;;;;;17.70;15.90;;;;;;;4.90;63.05;99400.78;6094230;29;20287;-64
2021/01/24 04:23:37;;;;;;;16.70;14.80;;;;;;;4.93;62.89;99402.47;6091326;29;20307;-64
2021/01/24 04:26:57;;;;;;;19.57;15.50;;;;;;;4.83;63.17;99396.53;6098147;29;20508;-62
2021/01/24 04:30:19;;;;;;;19.23;15.73;;;;;;;4.76;63.46;99399.19;6094511;29;20327;-64
2021/01/24 04:33:39;;;;;;;17.10;15.30;;;;;;;4.84;63.15;99399.97;6097695;29;20618;-63
2021/01/24 04:37:00;;;;;;;18.47;16.47;;;;;;;4.85;63.15;99392.22;6093136;29;20232;-64
2021/01/24 04:40:21;;;;;;;18.43;16.43;;;;;;;4.81;63.17;99387.97;6096660;29;20592;-65
2021/01/24 04:43:42;;;;;;;17.83;15.30;;;;;;;4.85;62.82;99379.31;6097865;29;20228;-64
2021/01/24 04:47:04;;;;;;;18.23;15.63;;;;;;;4.92;62.95;99388.72;6094896;29;20647;-64
2021/01/24 04:50:26;;;;;;;18.47;14.13;;;;;;;4.86;63.36;99388.75;6096701;29;20236;-64
2021/01/24 04:53:47;;;;;;;15.83;14.20;;;;;;;4.92;62.73;99383.56;6090930;29;20236;-64
2021/01/24 04:57:09;;;;;;;16.97;15.20;;;;;;;5.00;62.38;99385.19;6099384;28;20229;-64
2021/01/24 05:00:29;;;;;;;16.70;15.00;;;;;;;5.07;62.67;99379.97;6095437;29;20630;-64
2021/01/24 05:03:50;;;;;;;19.60;15.33;;;;;;;5.08;62.22;99383.44;6090501;29;20611;-64
2021/01/24 05:07:12;;;;;;;18.23;15.47;;;;;;;4.77;62.61;99378.53;6096673;29;20236;-64
2021/01/24 05:10:32;;;;;;;16.80;15.10;;;;;;;4.90;63.10;99384.44;6100033;29;20504;-64
2021/01/24 05:13:53;;;;;;;15.23;13.63;;;;;;;4.99;62.37;99378.34;6101869;28;20233;-63
2021/01/24 05:17:13;;;;;;;18.53;14.60;;;;;;;5.09;61.87;99374.81;6093026;29;20268;-63
2021/01/24 05:20:35;;;;;;;15.93;14.33;;;;;;;4.96;63.00;99368.88;6100197;29;20461;-65
2021/01/24 05:23:56;;;;;;;14.63;13.13;;;;;;;5.09;62.07;99374.81;6092806;28;20645;-63
2021/01/24 05:27:17;;;;;;;17.80;15.40;;;;;;;5.08;62.03;99378.28;6098247;28;20224;-63
2021/01/24 05:30:37;;;;;;;16.77;15.07;;;;;;;5.05;62.32;99383.44;6093572;29;20240;-63
2021/01/24 05:33:58;;;;;;;18.73;14.00;;;;;;;5.08;61.94;99380.84;6097199;29;20236;-64
2021/01/24 05:37:19;;;;;;;17.00;15.30;;;;;;;5.08;62.48;99378.28;6094019;29;20407;-64
2021/01/24 05:40:40;;;;;;;15.93;14.23;;;;;;;4.98;61.93;99377.47;6098014;29;20225;-64
2021/01/24 05:44:00;;;;;;;17.53;14.97;;;;;;;5.09;62.04;99377.38;6090308;28;20233;-64
2021/01/24 05:47:20;;;;;;;16.83;14.87;;;;;;;5.13;61.60;99373.91;6101698;29;20239;-63
2021/01/24 05:50:44;;;;;;;16.43;14.77;;;;;;;5.17;61.97;99380.72;6099333;28;20330;-63
2021/01/24 05:54:05;;;;;;;15.70;14.17;;;;;;;5.11;61.85;99378.22;6091443;29;20232;-64
2021/01/24 05:57:26;;;;;;;18.70;15.53;;;;;;;5.21;61.85;99385.00;6092482;28;20240;-63
2021/01/24 06:00:49;;;;;;;20.03;14.10;;;;;;;5.24;61.85;99384.97;6103600;29;20233;-63
2021/01/24 06:04:10;;;;;;;16.47;14.33;;;;;;;5.22;61.53;99384.13;6096396;29;20228;-64
2021/01/24 06:07:31;;;;;;;21.03;15.53;;;;;;;5.29;61.25;99388.38;6096065;29;20228;-64
2021/01/24 06:10:53;;;;;;;16.23;14.53;;;;;;;5.37;61.38;99390.88;6089932;29;20256;-63
2021/01/24 06:14:14;;;;;;;17.23;15.43;;;;;;;5.26;61.96;99393.56;6095927;29;20228;-63
2021/01/24 06:17:38;;;;;;;15.47;13.93;;;;;;;5.35;61.77;99402.06;6088885;29;20558;-63
2021/01/24 06:21:03;;;;;;;16.93;14.73;;;;;;;5.29;62.06;99401.28;6095463;28;20244;-63
2021/01/24 06:24:28;;;;;;;17.70;15.87;;;;;;;5.10;62.63;99413.50;6094755;29;20233;-62
2021/01/24 06:27:55;;;;;;;18.70;15.93;;;;;;;5.20;62.43;99416.00;6092694;29;20244;-64
2021/01/24 06:31:16;;;;;;;23.87;17.23;;;;;;;5.23;61.97;99419.38;6094723;29;20236;-63
2021/01/24 06:34:39;;;;;;;18.67;16.77;;;;;;;5.39;61.42;99419.22;6096801;29;20237;-63
2021/01/24 06:38:01;;;;;;;18.80;16.97;;;;;;;5.50;61.35;99419.97;6090456;29;20237;-64
2021/01/24 06:41:43;;;;;;;17.43;15.50;;;;;;;5.49;61.46;99426.03;6090730;28;20224;-63
2021/01/24 06:45:26;;;;;;;19.90;16.40;;;;;;;5.54;61.07;99429.41;6097658;28;20243;-64
2021/01/24 06:48:48;;;;;;;21.10;16.33;;;;;;;5.30;61.67;99444.28;6097343;28;20614;-64
2021/01/24 06:52:16;;;;;;;18.50;16.43;;;;;;;5.28;61.43;99443.44;6080071;29;20236;-62
2021/01/24 06:55:38;;;;;;;24.53;17.13;;;;;;;5.15;61.69;99451.31;6100883;29;20236;-64
2021/01/24 06:58:58;;;;;;;18.47;16.33;;;;;;;5.00;62.49;99452.28;6091992;29;20240;-64
2021/01/24 07:02:26;;;;;;;20.07;16.97;;;;;;;5.17;61.96;99453.00;6094127;29;20250;-65
2021/01/24 07:05:46;;;;;;;18.40;16.47;;;;;;;5.12;62.44;99447.88;6100402;28;20236;-64
2021/01/24 07:09:41;;;;;;;20.93;15.83;;;;;;;5.32;62.20;99447.69;6093600;29;20244;-63
2021/01/24 07:13:01;;;;;;;20.03;15.63;;;;;;;5.44;61.78;99454.47;6099529;29;20240;-64
2021/01/24 07:16:21;;;;;;;19.33;17.07;;;;;;;5.33;61.31;99459.75;6087150;28;20323;-64
2021/01/24 07:19:45;;;;;;;19.07;15.93;;;;;;;5.30;61.87;99462.34;6096190;29;20232;-63
2021/01/24 07:23:05;;;;;;;19.47;17.43;;;;;;;5.13;62.33;99467.66;6096559;29;20244;-64
2021/01/24 07:26:26;;;;;;;21.90;16.63;;;;;;;5.23;61.69;99473.59;6098269;29;20472;-65
2021/01/24 07:29:47;;;;;;;18.63;16.80;;;;;;;5.18;62.36;99475.38;6083809;29;20248;-64
2021/01/24 07:33:08;;;;;;;21.97;18.70;;;;;;;5.23;61.96;99476.16;6098121;29;20260;-64
2021/01/24 07:36:29;;;;;;;19.73;17.73;;;;;;;5.25;62.02;99481.31;6096844;28;21724;-63
2021/01/24 07:39:51;;;;;;;18.90;15.73;;;;;;;5.24;62.09;99493.38;6092499;29;20236;-64
2021/01/24 07:43:11;;;;;;;20.80;18.00;;;;;;;5.25;62.26;99491.66;6109628;29;20232;-64
2021/01/24 07:46:32;;;;;;;18.50;16.67;;;;;;;5.27;61.74;99502.81;6096502;29;20319;-64
2021/01/24 07:49:53;;;;;;;18.60;16.03;;;;;;;5.39;61.48;99494.09;6101391;28;20232;-64
2021/01/24 07:53:15;;;;;;;18.67;16.60;;;;;;;5.35;61.25;99497.59;6098042;29;20240;-64
2021/01/24 07:56:36;;;;;;;19.30;16.40;;;;;;;5.23;61.74;99509.72;6097522;29;20232;-64
2021/01/24 07:59:56;;;;;;;19.60;15.80;;;;;;;5.37;61.22;99506.16;6097025;29;20236;-63
2021/01/24 08:03:19;;;;;;;17.40;15.60;;;;;;;5.42;60.95;99509.59;6089124;29;20231;-64
2021/01/24 08:06:40;;;;;;;19.03;16.07;;;;;;;5.47;61.11;99511.25;6114234;28;20496;-64
2021/01/24 08:10:02;;;;;;;18.13;16.33;;;;;;;5.51;60.67;99518.09;6098888;29;20327;-65
2021/01/24 08:13:22;;;;;;;17.57;15.70;;;;;;;5.42;61.42;99517.31;6097845;28;20619;-64
2021/01/24 08:16:45;;;;;;;17.80;15.80;;;;;;;5.45;61.01;99519.91;6067960;29;20236;-65
2021/01/24 08:20:08;;;;;;;19.50;16.83;;;;;;;5.22;61.40;99518.34;6096888;29;20233;-62
2021/01/24 08:23:29;;;;;;;18.87;16.87;;;;;;;5.33;61.39;99523.41;6103656;28;20236;-65
2021/01/24 08:26:50;;;;;;;30.17;16.97;;;;;;;5.29;61.85;99527.78;6097060;28;20232;-65
2021/01/24 08:30:12;;;;;;;19.00;16.03;;;;;;;5.38;61.43;99531.13;6103128;28;20454;-63
2021/01/24 08:33:33;;;;;;;20.83;16.37;;;;;;;5.55;61.15;99541.31;6098392;29;20236;-64
2021/01/24 08:36:54;;;;;;;22.07;16.60;;;;;;;5.60;60.80;99537.81;6112854;28;20237;-64
2021/01/24 08:40:15;;;;;;;17.50;15.70;;;;;;;5.66;60.69;99558.44;6100611;28;20630;-63
2021/01/24 08:43:37;;;;;;;21.70;16.63;;;;;;;5.66;60.83;99555.84;6118104;29;20232;-63
2021/01/24 08:47:03;;;;;;;19.63;17.63;;;;;;;5.18;61.88;99565.72;6097541;28;20589;-64
2021/01/24 08:50:24;;;;;;;19.73;17.03;;;;;;;5.17;62.34;99557.97;6084646;29;20606;-64
2021/01/24 08:53:45;;;;;;;21.43;15.97;;;;;;;5.04;63.25;99572.66;6108731;28;20327;-63
2021/01/24 08:57:15;;;;;;;18.23;16.27;;;;;;;4.77;63.81;99579.72;6096524;28;20626;-64
2021/01/24 09:00:37;;;;;;;19.53;17.27;;;;;;;4.43;64.99;99576.44;6095159;28;20602;-63
2021/01/24 09:04:20;;;;;;;20.13;17.97;;;;;;;4.97;63.73;99581.34;6095198;28;20232;-64
2021/01/24 09:07:42;;;;;;;20.67;18.47;;;;;;;5.16;63.51;99590.69;6096237;29;20232;-65
2021/01/24 09:11:02;;;;;;;18.67;16.77;;;;;;;5.44;62.58;99577.56;6087482;29;20232;-64
2021/01/24 09:14:24;;;;;;;19.77;17.67;;;;;;;4.86;64.22;99586.53;6085112;29;20233;-64
2021/01/24 09:17:45;;;;;;;20.97;17.47;;;;;;;5.24;63.12;99588.91;6087940;28;20232;-65
2021/01/24 09:21:06;;;;;;;36.90;30.30;;;;;;;5.18;64.16;99591.53;6082551;29;20631;-64
2021/01/24 09:24:27;;;;;;;21.03;18.93;;;;;;;5.41;64.00;99588.78;6084965;29;20657;-64
2021/01/24 09:27:47;;;;;;;18.97;16.87;;;;;;;5.57;63.05;99597.25;6086014;29;20241;-66
2021/01/24 09:31:08;;;;;;;21.20;17.20;;;;;;;5.41;63.51;99598.22;6090453;29;20240;-64
2021/01/24 09:34:29;;;;;;;24.93;21.23;;;;;;;5.51;62.86;99599.88;6088878;29;20241;-63
2021/01/24 09:37:50;;;;;;;28.63;24.57;;;;;;;5.81;62.16;99597.91;6090338;29;20229;-63
2021/01/24 09:41:10;;;;;;;19.73;17.67;;;;;;;6.06;61.53;99599.41;6088123;29;20628;-64
2021/01/24 09:44:32;;;;;;;20.33;17.20;;;;;;;6.17;61.14;99603.63;6086837;29;20328;-63
2021/01/24 09:47:54;;;;;;;21.37;18.10;;;;;;;5.99;62.20;99604.66;6092797;28;20240;-61
2021/01/24 09:51:15;;;;;;;21.10;17.97;;;;;;;6.03;61.76;99608.91;6089607;28;20256;-64
2021/01/24 09:54:36;;;;;;;20.97;18.83;;;;;;;6.18;61.72;99607.91;6086084;28;20241;-56
2021/01/24 09:57:56;;;;;;;30.33;27.03;;;;;;;6.23;61.29;99608.75;6084492;29;20261;-61
2021/01/24 10:01:17;;;;;;;23.17;20.77;;;;;;;6.36;61.21;99609.44;6091720;29;20221;-65
2021/01/24 10:04:37;;;;;;;27.67;25.17;;;;;;;6.54;60.67;99611.84;6091333;29;20232;-66
2021/01/24 10:07:59;;;;;;;23.63;21.10;;;;;;;6.47;60.86;99616.19;6092897;29;20239;-65
2021/01/24 10:11:21;;;;;;;21.50;19.10;;;;;;;6.45;60.74;99620.53;6088927;29;20240;-65
2021/01/24 10:14:41;;;;;;;18.83;16.87;;;;;;;6.39;60.64;99623.19;6093929;29;20243;-64
2021/01/24 10:18:02;;;;;;;18.97;16.40;;;;;;;6.55;60.50;99625.63;6091214;29;20566;-63
2021/01/24 10:21:22;;;;;;;17.93;16.07;;;;;;;6.31;61.33;99630.19;6093992;29;20239;-63
2021/01/24 10:24:43;;;;;;;18.10;15.50;;;;;;;6.68;62.02;99624.59;6093391;29;20728;-63
2021/01/24 10:28:04;;;;;;;18.97;15.97;;;;;;;6.82;60.58;99625.28;6089244;29;20823;-64
2021/01/24 10:31:25;;;;;;;18.50;16.47;;;;;;;6.76;60.38;99621.91;6095933;28;20228;-63
2021/01/24 10:34:45;;;;;;;18.63;16.77;;;;;;;6.71;60.38;99624.56;6085161;28;20343;-64
2021/01/24 10:38:06;;;;;;;21.23;17.23;;;;;;;6.74;60.54;99614.16;6089652;29;20629;-64
2021/01/24 10:41:28;;;;;;;22.00;17.23;;;;;;;6.79;60.71;99622.75;6093518;29;20240;-63
2021/01/24 10:44:48;;;;;;;18.50;16.60;;;;;;;6.73;61.14;99620.22;6095188;28;20240;-63
2021/01/24 10:48:10;;;;;;;17.30;15.60;;;;;;;6.76;60.40;99617.59;6083448;29;20264;-63
2021/01/24 10:51:30;;;;;;;16.30;14.60;;;;;;;6.73;60.56;99625.41;6087356;29;20244;-63
2021/01/24 10:54:50;;;;;;;17.60;15.87;;;;;;;6.86;60.10;99626.97;6082383;29;20236;-63
2021/01/24 10:58:12;;;;;;;18.13;14.77;;;;;;;6.87;60.34;99627.81;6085281;29;20236;-63
2021/01/24 11:01:34;;;;;;;20.87;14.03;;;;;;;6.75;60.51;99628.81;6085233;28;20252;-63
2021/01/24 11:04:54;;;;;;;13.97;12.53;;;;;;;6.11;62.68;99631.25;6068790;29;20233;-63
2021/01/24 11:08:15;;;;;;;14.03;12.63;;;;;;;6.40;61.66;99627.50;6085118;28;20323;-63
2021/01/24 11:11:35;;;;;;;12.30;10.53;;;;;;;6.28;61.56;99623.34;6084503;28;20232;-63
2021/01/24 11:14:56;;;;;;;13.80;12.43;;;;;;;6.28;61.22;99625.03;6086181;29;20307;-63
2021/01/24 11:18:17;;;;;;;12.47;11.30;;;;;;;6.40;61.16;99624.06;6084529;28;20557;-65
2021/01/24 11:21:37;;;;;;;15.83;12.57;;;;;;;6.30;61.03;99624.16;6082221;29;20231;-63
2021/01/24 11:24:58;;;;;;;13.00;11.70;;;;;;;6.05;61.68;99627.88;6087504;29;20237;-63
2021/01/24 11:28:18;;;;;;;14.33;12.83;;;;;;;6.20;61.14;99629.44;6086759;29;20236;-64
2021/01/24 11:31:40;;;;;;;14.27;11.60;;;;;;;6.53;60.60;99619.59;6091516;29;20237;-65
2021/01/24 11:35:00;;;;;;;14.50;12.87;;;;;;;5.87;62.09;99629.72;6089799;28;20257;-63
2021/01/24 11:38:20;;;;;;;14.50;13.00;;;;;;;5.75;62.18;99628.97;6080388;29;20225;-64
2021/01/24 11:41:41;;;;;;;16.47;14.77;;;;;;;5.97;61.78;99633.13;6081166;29;20244;-64
2021/01/24 11:45:01;;;;;;;18.50;16.50;;;;;;;4.87;64.41;99638.13;6085254;29;20233;-65
2021/01/24 11:48:23;;;;;;;17.77;14.47;;;;;;;5.30;63.16;99637.91;6077305;29;20252;-64
2021/01/24 11:51:43;;;;;;;16.57;14.80;;;;;;;5.11;63.68;99642.31;6085980;28;20236;-64
2021/01/24 11:55:04;;;;;;;25.30;15.43;;;;;;;5.29;63.43;99641.34;6089550;28;20236;-63
2021/01/24 11:58:25;;;;;;;17.60;15.63;;;;;;;5.14;63.84;99641.44;6079581;28;20578;-64
2021/01/24 12:01:45;;;;;;;17.03;15.23;;;;;;;5.28;63.50;99646.53;6087473;28;20512;-65
2021/01/24 12:05:08;;;;;;;16.70;14.93;;;;;;;5.57;62.80;99653.22;6084899;28;20237;-63
2021/01/24 12:08:28;;;;;;;18.67;16.67;;;;;;;5.35;62.83;99648.22;6082865;29;20650;-64
2021/01/24 12:11:49;;;;;;;17.97;16.07;;;;;;;5.32;63.08;99656.81;6088227;29;20232;-64
2021/01/24 12:15:10;;;;;;;17.40;15.80;;;;;;;5.04;63.85;99653.53;6087794;28;20240;-64
2021/01/24 12:18:31;;;;;;;20.00;17.63;;;;;;;5.41;62.92;99648.16;6090385;28;20240;-64
2021/01/24 12:21:52;;;;;;;18.50;16.23;;;;;;;5.53;62.63;99649.81;6088385;29;20326;-65
2021/01/24 12:25:12;;;;;;;18.57;15.53;;;;;;;5.11;64.67;99649.19;6090042;28;20232;-64
2021/01/24 12:28:33;;;;;;;20.50;16.80;;;;;;;4.88;64.22;99645.00;6081808;29;20623;-63
2021/01/24 12:31:53;;;;;;;18.93;15.93;;;;;;;5.26;63.88;99643.94;6110641;28;21169;-63
2021/01/24 12:35:13;;;;;;;17.77;15.73;;;;;;;5.44;63.57;99636.94;6094962;28;20326;-63
2021/01/24 12:38:34;;;;;;;19.27;17.27;;;;;;;4.98;65.81;99630.31;6096623;28;20240;-62
2021/01/24 12:41:55;;;;;;;17.57;15.73;;;;;;;5.56;63.88;99639.44;6092669;29;20232;-64
2021/01/24 12:45:16;;;;;;;18.27;16.17;;;;;;;5.27;64.58;99632.78;6094182;29;20228;-63
2021/01/24 12:48:38;;;;;;;18.97;16.47;;;;;;;5.13;65.87;99629.41;6098959;28;20216;-63
2021/01/24 12:51:59;;;;;;;22.60;20.07;;;;;;;5.79;63.52;99620.31;6099785;28;20554;-63
2021/01/24 12:55:20;;;;;;;18.50;16.70;;;;;;;5.50;64.76;99631.72;6110334;28;20276;-65
2021/01/24 12:58:40;;;;;;;23.53;19.73;;;;;;;5.98;63.08;99631.38;6096802;29;20232;-63
2021/01/24 13:02:04;;;;;;;20.87;18.67;;;;;;;6.40;62.14;99632.69;6097174;29;20322;-63
2021/01/24 13:05:24;;;;;;;22.77;17.93;;;;;;;5.35;64.65;99634.41;6098510;28;20220;-65
2021/01/24 13:08:44;;;;;;;19.73;17.20;;;;;;;5.10;65.80;99643.19;6096336;28;20440;-64
2021/01/24 13:12:06;;;;;;;18.30;16.40;;;;;;;5.08;66.31;99639.75;6090234;28;20236;-65
2021/01/24 13:15:27;;;;;;;21.43;19.23;;;;;;;5.21;65.12;99639.69;6076334;28;20251;-64
2021/01/24 13:18:47;;;;;;;18.63;16.73;;;;;;;5.38;65.34;99640.44;6091295;28;20241;-63
2021/01/24 13:22:08;;;;;;;21.00;18.80;;;;;;;5.57;64.15;99651.50;6097813;28;20244;-64
2021/01/24 13:25:29;;;;;;;19.40;17.37;;;;;;;4.80;66.49;99645.91;6099156;28;20228;-64
2021/01/24 13:28:49;;;;;;;20.87;18.67;;;;;;;5.37;65.14;99648.16;6096649;28;20709;-65
2021/01/24 13:32:10;;;;;;;21.13;17.30;;;;;;;5.35;66.19;99655.06;6095479;28;20311;-60
2021/01/24 13:35:30;;;;;;;21.13;18.87;;;;;;;5.20;66.37;99658.63;6096902;28;20323;-64
2021/01/24 13:38:51;;;;;;;19.50;17.33;;;;;;;4.97;66.76;99654.44;6108832;28;20645;-64
2021/01/24 13:42:11;;;;;;;20.90;16.60;;;;;;;5.44;66.25;99652.44;6107978;29;20232;-65
2021/01/24 13:45:33;;;;;;;19.70;17.33;;;;;;;5.29;66.31;99651.69;6106159;28;20319;-65
2021/01/24 13:48:53;;;;;;;19.63;17.73;;;;;;;5.77;64.56;99653.06;6100641;28;20233;-65
2021/01/24 13:52:13;;;;;;;20.80;17.70;;;;;;;5.27;66.06;99653.41;6091559;29;20336;-65
2021/01/24 13:55:34;;;;;;;21.77;17.90;;;;;;;5.36;66.37;99656.81;6098444;29;20936;-65
2021/01/24 13:58:54;;;;;;;22.07;17.13;;;;;;;5.29;66.68;99656.84;6086499;29;20645;-64
2021/01/24 14:02:16;;;;;;;21.53;18.53;;;;;;;4.89;67.89;99656.19;6098076;29;20236;-64
2021/01/24 14:05:37;;;;;;;20.70;18.70;;;;;;;4.53;69.03;99660.59;6114209;28;20359;-64
2021/01/24 14:08:57;;;;;;;20.87;17.97;;;;;;;4.79;68.64;99668.28;6106603;28;20233;-65
2021/01/24 14:12:18;;;;;;;21.37;18.80;;;;;;;5.04;67.90;99660.41;6090993;28;20236;-65
2021/01/24 14:15:39;;;;;;;21.70;18.30;;;;;;;5.12;67.68;99666.41;6104523;28;20236;-64
2021/01/24 14:19:00;;;;;;;21.63;18.47;;;;;;;5.39;66.39;99664.50;6107759;28;20236;-64
2021/01/24 14:22:21;;;;;;;19.67;17.60;;;;;;;5.18;67.05;99663.78;6094824;29;20240;-65
2021/01/24 14:25:42;;;;;;;20.03;17.90;;;;;;;4.83;68.75;99672.56;6109692;28;20322;-63
2021/01/24 14:29:02;;;;;;;22.73;19.17;;;;;;;4.86;68.23;99675.09;6091751;28;20240;-63
2021/01/24 14:32:23;;;;;;;19.60;17.30;;;;;;;4.96;68.01;99673.34;6095540;28;20232;-64
2021/01/24 14:35:45;;;;;;;21.67;19.47;;;;;;;5.30;67.15;99668.88;6101346;28;20534;-66
2021/01/24 14:39:06;;;;;;;22.67;18.97;;;;;;;5.34;66.73;99680.03;6106026;28;20236;-65
2021/01/24 14:42:26;;;;;;;22.10;18.03;;;;;;;5.15;67.47;99679.28;6102282;28;20236;-66
2021/01/24 14:45:47;;;;;;;25.00;18.77;;;;;;;5.16;67.90;99686.16;6100011;28;20874;-63
2021/01/24 14:49:07;;;;;;;22.23;19.23;;;;;;;4.99;68.45;99690.56;6101620;28;20588;-65
2021/01/24 14:52:29;;;;;;;22.03;19.63;;;;;;;4.84;69.36;99687.16;6104607;28;20244;-65
2021/01/24 14:55:49;;;;;;;20.30;18.20;;;;;;;4.85;68.87;99686.31;6090963;29;20252;-63
2021/01/24 14:59:10;;;;;;;15.67;13.97;;;;;;;4.35;70.29;99705.34;6097194;29;20244;-64
2021/01/24 15:02:30;;;;;;;15.77;14.17;;;;;;;3.78;71.70;99707.94;6097040;28;20240;-65
2021/01/24 15:05:51;;;;;;;14.80;13.37;;;;;;;3.64;70.67;99709.63;6089449;29;20236;-63
2021/01/24 15:09:12;;;;;;;12.90;11.50;;;;;;;3.45;72.41;99703.59;6094331;29;20616;-62
2021/01/24 15:12:33;;;;;;;15.93;13.97;;;;;;;3.46;72.45;99707.91;6100231;28;20576;-62
2021/01/24 15:15:53;;;;;;;16.43;14.80;;;;;;;3.32;72.81;99711.28;6095306;29;20236;-62
2021/01/24 15:19:14;;;;;;;16.17;14.57;;;;;;;3.21;73.55;99701.81;6093968;28;20232;-61
2021/01/24 15:22:34;;;;;;;18.37;14.73;;;;;;;3.61;71.63;99699.34;6098892;28;20655;-63
2021/01/24 15:25:56;;;;;;;19.90;16.93;;;;;;;3.96;70.43;99699.38;6098792;28;20236;-63
2021/01/24 15:29:16;;;;;;;19.80;16.40;;;;;;;4.38;69.36;99700.19;6103837;28;20239;-63
2021/01/24 15:32:36;;;;;;;17.50;15.70;;;;;;;4.52;69.47;99701.00;6093631;29;20331;-64
2021/01/24 15:35:57;;;;;;;18.93;16.20;;;;;;;4.37;69.07;99695.88;6093439;28;20243;-64